createdAt,value
2023-05-12T00:02:23.205Z,63.92
2023-05-12T00:04:53.041Z,60.03
2023-05-12T00:07:22.873Z,65.07
2023-05-12T00:09:52.495Z,64.53
2023-05-12T00:12:22.211Z,71.18
2023-05-12T00:14:51.868Z,61.50
2023-05-12T00:17:21.643Z,70.15
2023-05-12T00:19:51.703Z,59.88
2023-05-12T00:22:21.726Z,59.90
2023-05-12T00:24:51.435Z,69.40
2023-05-12T00:27:21.106Z,49.85
2023-05-12T00:29:50.748Z,66.07
2023-05-12T00:32:20.409Z,61.58
2023-05-12T00:34:51.855Z,66.45
2023-05-12T00:37:21.573Z,69.85
2023-05-12T00:39:51.221Z,69.78
2023-05-12T00:42:21.115Z,68.07
2023-05-12T00:44:50.900Z,69.60
2023-05-12T00:47:22.088Z,70.97
2023-05-12T00:49:51.748Z,62.85
2023-05-12T00:52:22.688Z,62.60
2023-05-12T00:54:52.720Z,72.82
2023-05-12T00:57:24.631Z,64.05
2023-05-12T00:59:54.345Z,70.75
2023-05-12T01:02:25.259Z,63.03
2023-05-12T01:04:55.096Z,70.97
2023-05-12T01:07:25.845Z,65.82
2023-05-12T01:09:58.776Z,68.72
2023-05-12T01:12:29.585Z,70.40
2023-05-12T01:15:00.564Z,63.38
2023-05-12T01:17:34.875Z,63.28
2023-05-12T01:20:08.193Z,61.67
2023-05-12T01:22:39.558Z,50.85
2023-05-12T01:25:14.008Z,60.40
2023-05-12T01:27:45.133Z,63.70
2023-05-12T01:30:21.202Z,66.75
2023-05-12T01:32:51.180Z,69.95
2023-05-12T01:35:21.294Z,63.15
2023-05-12T01:37:51.065Z,63.13
2023-05-12T01:40:20.967Z,54.42
2023-05-12T01:42:50.847Z,57.67
2023-05-12T01:45:20.799Z,61.05
2023-05-12T01:47:50.464Z,46.22
2023-05-12T01:50:20.454Z,61.45
2023-05-12T01:52:50.314Z,54.13
2023-05-12T01:55:20.105Z,65.95
2023-05-12T01:57:49.713Z,67.13
2023-05-12T02:00:19.829Z,65.68
2023-05-12T02:02:50.195Z,61.60
2023-05-12T02:05:20.169Z,68.10
2023-05-12T02:07:49.915Z,62.10
2023-05-12T02:10:20.049Z,67.32
2023-05-12T02:12:50.085Z,52.90
2023-05-12T02:15:19.732Z,69.38
2023-05-12T02:17:49.397Z,67.55
2023-05-12T02:20:19.227Z,60.42
2023-05-12T02:22:49.084Z,55.40
2023-05-12T02:25:18.768Z,64.70
2023-05-12T02:27:48.616Z,60.45
2023-05-12T02:30:18.477Z,65.82
2023-05-12T02:32:48.542Z,63.65
2023-05-12T02:35:18.370Z,71.82
2023-05-12T02:37:48.011Z,65.47
2023-05-12T02:40:18.014Z,60.08
2023-05-12T02:42:47.846Z,51.38
2023-05-12T02:45:17.721Z,65.10
2023-05-12T02:47:47.360Z,59.45
2023-05-12T02:50:18.296Z,67.35
2023-05-12T02:52:48.224Z,73.22
2023-05-12T02:55:18.002Z,69.25
2023-05-12T02:57:47.715Z,61.45
2023-05-12T03:00:17.964Z,58.13
2023-05-12T03:02:47.797Z,55.40
2023-05-12T03:05:17.495Z,73.68
2023-05-12T03:07:47.441Z,53.05
2023-05-12T03:10:17.318Z,59.25
2023-05-12T03:12:47.265Z,56.40
2023-05-12T03:15:16.933Z,56.83
2023-05-12T03:17:46.580Z,46.78
2023-05-12T03:20:16.296Z,47.55
2023-05-12T03:22:46.009Z,43.58
2023-05-12T03:25:16.604Z,45.80
2023-05-12T03:27:46.284Z,50.28
2023-05-12T03:30:16.421Z,42.70
2023-05-12T03:32:47.876Z,49.60
2023-05-12T03:35:17.844Z,62.75
2023-05-12T03:37:47.755Z,53.20
2023-05-12T03:40:20.123Z,54.50
2023-05-12T03:42:50.044Z,59.63
2023-05-12T03:45:19.995Z,45.63
2023-05-12T03:47:49.753Z,54.67
2023-05-12T03:50:19.805Z,46.85
2023-05-12T03:52:49.623Z,64.45
2023-05-12T03:55:19.382Z,41.50
2023-05-12T03:57:51.166Z,53.13
2023-05-12T04:00:21.429Z,64.75
2023-05-12T04:02:52.517Z,46.47
2023-05-12T04:05:22.329Z,54.55
2023-05-12T04:07:52.088Z,73.15
2023-05-12T04:10:21.843Z,63.17
2023-05-12T04:12:51.660Z,57.72
2023-05-12T04:15:21.682Z,54.95
2023-05-12T04:17:52.609Z,59.03
2023-05-12T04:20:22.343Z,59.00
2023-05-12T04:22:53.026Z,52.65
2023-05-12T04:25:23.098Z,56.22
2023-05-12T04:27:52.725Z,70.97
2023-05-12T04:30:22.594Z,54.85
2023-05-12T04:32:52.395Z,50.47
2023-05-12T04:35:22.675Z,60.45
2023-05-12T04:37:52.548Z,54.40
2023-05-12T04:40:22.478Z,56.25
2023-05-12T04:42:52.312Z,57.10
2023-05-12T04:45:22.566Z,63.42
2023-05-12T04:47:52.644Z,58.13
2023-05-12T04:50:22.399Z,48.17
2023-05-12T04:52:52.147Z,64.45
2023-05-12T04:55:22.028Z,67.97
2023-05-12T04:57:52.139Z,61.50
2023-05-12T05:00:22.010Z,57.80
2023-05-12T05:02:51.762Z,65.13
2023-05-12T05:05:21.732Z,53.92
2023-05-12T05:07:51.552Z,56.35
2023-05-12T05:10:21.198Z,51.50
2023-05-12T05:12:50.912Z,59.25
2023-05-12T05:15:21.107Z,47.88
2023-05-12T05:17:51.483Z,52.70
2023-05-12T05:20:25.581Z,48.35
2023-05-12T05:22:58.591Z,56.50
2023-05-12T05:25:29.651Z,56.00
2023-05-12T05:27:59.696Z,49.72
2023-05-12T05:30:29.374Z,62.72
2023-05-12T05:32:59.041Z,41.20
2023-05-12T05:35:28.662Z,51.80
2023-05-12T05:37:58.317Z,51.72
2023-05-12T05:40:28.608Z,46.67
2023-05-12T05:43:00.240Z,51.72
2023-05-12T05:45:29.865Z,44.08
2023-05-12T05:47:59.503Z,52.00
2023-05-12T05:50:29.250Z,39.15
2023-05-12T05:52:58.879Z,44.13
2023-05-12T05:55:28.619Z,38.13
2023-05-12T05:57:58.228Z,37.97
2023-05-12T06:00:28.205Z,34.28
2023-05-12T06:02:57.871Z,40.80
2023-05-12T06:05:27.666Z,37.83
2023-05-12T06:07:57.618Z,41.63
2023-05-12T06:10:27.585Z,48.85
2023-05-12T06:12:57.650Z,45.70
2023-05-12T06:15:27.741Z,47.40
2023-05-12T06:17:57.438Z,43.47
2023-05-12T06:20:27.590Z,39.42
2023-05-12T06:22:57.236Z,44.30
2023-05-12T06:25:27.014Z,45.78
2023-05-12T06:27:56.674Z,44.05
2023-05-12T06:30:26.352Z,43.17
2023-05-12T06:32:56.214Z,40.85
2023-05-12T06:35:25.970Z,48.42
2023-05-12T06:37:55.686Z,34.50
2023-05-12T06:40:25.337Z,43.15
2023-05-12T06:42:55.002Z,47.60
2023-05-12T06:45:25.101Z,43.95
2023-05-12T06:47:54.815Z,35.95
2023-05-12T06:50:24.471Z,43.92
2023-05-12T06:52:54.996Z,46.45
2023-05-12T06:55:25.522Z,43.80
2023-05-12T06:57:57.311Z,46.08
2023-05-12T07:00:28.166Z,44.78
2023-05-12T07:02:57.833Z,49.67
2023-05-12T07:05:27.763Z,44.60
2023-05-12T07:07:57.453Z,53.17
2023-05-12T07:10:27.102Z,45.55
2023-05-12T07:12:56.761Z,35.67
2023-05-12T07:15:26.455Z,38.67
2023-05-12T07:17:57.281Z,36.58
2023-05-12T07:20:27.049Z,39.35
2023-05-12T07:22:58.126Z,34.28
2023-05-12T07:25:27.901Z,41.00
2023-05-12T07:27:57.679Z,42.03
2023-05-12T07:30:27.351Z,42.92
2023-05-12T07:32:57.076Z,44.47
2023-05-12T07:35:26.757Z,41.58
2023-05-12T07:37:56.388Z,42.67
2023-05-12T07:40:26.157Z,38.10
2023-05-12T07:42:56.348Z,40.13
2023-05-12T07:45:26.785Z,40.67
2023-05-12T07:47:56.475Z,41.75
2023-05-12T07:50:26.108Z,40.90
2023-05-12T07:52:56.140Z,41.13
2023-05-12T07:55:27.202Z,42.20
2023-05-12T07:57:56.867Z,32.42
2023-05-12T08:00:26.439Z,45.38
2023-05-12T08:02:56.578Z,37.35
2023-05-12T08:05:26.314Z,38.83
2023-05-12T08:07:55.948Z,37.92
2023-05-12T08:10:28.853Z,36.92
2023-05-12T08:12:59.292Z,33.92
2023-05-12T08:15:30.363Z,30.42
2023-05-12T08:17:59.958Z,36.65
2023-05-12T08:20:29.560Z,28.38
2023-05-12T08:22:59.149Z,28.38
2023-05-12T08:25:31.822Z,22.58
2023-05-12T08:28:01.462Z,24.40
2023-05-12T08:30:31.278Z,27.15
2023-05-12T08:33:00.932Z,19.00
2023-05-12T08:35:30.602Z,24.20
2023-05-12T08:38:03.462Z,29.33
2023-05-12T08:40:36.594Z,21.45
2023-05-12T08:43:28.929Z,23.60
2023-05-12T08:46:04.121Z,25.00
2023-05-12T08:48:37.020Z,24.45
2023-05-12T08:51:13.417Z,31.13
2023-05-12T08:53:44.598Z,24.40
2023-05-12T08:58:48.714Z,26.92
2023-05-12T09:01:19.764Z,26.58
2023-05-12T09:03:49.581Z,21.10
2023-05-12T09:06:19.859Z,19.38
2023-05-12T09:08:50.081Z,19.95
2023-05-12T09:11:23.408Z,26.58
2023-05-12T09:16:52.352Z,19.48
2023-05-12T09:19:23.136Z,20.63
2023-05-12T09:21:52.955Z,24.25
2023-05-12T09:24:23.872Z,23.27
2023-05-12T09:26:57.474Z,23.70
2023-05-12T09:29:31.720Z,19.48
2023-05-12T09:32:04.938Z,20.85
2023-05-12T09:34:42.414Z,21.80
2023-05-12T09:37:13.286Z,24.67
2023-05-12T09:39:46.030Z,21.40
2023-05-12T09:42:15.798Z,22.77
2023-05-12T09:44:45.782Z,21.02
2023-05-12T09:47:17.013Z,17.75
2023-05-12T09:49:50.689Z,18.00
2023-05-12T09:52:24.162Z,22.55
2023-05-12T09:57:25.724Z,18.08
2023-05-12T09:59:56.460Z,21.30
2023-05-12T10:02:27.334Z,21.52
2023-05-12T10:05:02.819Z,20.27
2023-05-12T10:10:09.670Z,23.60
2023-05-12T10:12:39.870Z,24.50
2023-05-12T10:15:12.713Z,23.73
2023-05-12T10:17:45.323Z,18.40
2023-05-12T10:20:16.837Z,21.27
2023-05-12T10:22:48.094Z,17.67
2023-05-12T10:25:19.635Z,18.15
2023-05-12T10:27:50.582Z,17.27
2023-05-12T10:30:20.421Z,16.65
2023-05-12T10:32:50.134Z,13.15
2023-05-12T10:35:20.589Z,18.35
2023-05-12T10:37:51.727Z,17.90
2023-05-12T10:40:28.293Z,15.77
2023-05-12T10:43:05.757Z,22.50
2023-05-12T10:45:39.011Z,17.65
2023-05-12T10:48:10.708Z,18.65
2023-05-12T10:50:40.470Z,18.38
2023-05-12T10:53:13.916Z,16.10
2023-05-12T10:58:21.005Z,13.75
2023-05-12T11:00:56.261Z,17.25
2023-05-12T11:03:28.515Z,22.02
2023-05-12T11:06:07.038Z,18.50
2023-05-12T11:08:40.413Z,16.02
2023-05-12T11:11:11.030Z,19.33
2023-05-12T11:13:40.755Z,15.88
2023-05-12T11:16:15.190Z,13.63
2023-05-12T11:18:44.911Z,14.57
2023-05-12T11:21:14.955Z,14.63
2023-05-12T11:23:44.496Z,11.35
2023-05-12T11:26:20.658Z,13.95
2023-05-12T11:28:50.227Z,15.73
2023-05-12T11:31:24.033Z,16.25
2023-05-12T11:34:11.926Z,13.90
2023-05-12T11:36:44.398Z,13.90
2023-05-12T11:39:19.566Z,19.25
2023-05-12T11:41:51.355Z,17.55
2023-05-12T11:44:27.235Z,19.10
2023-05-12T11:47:17.658Z,14.18
2023-05-12T11:49:51.900Z,16.88
2023-05-12T11:52:23.733Z,17.17
2023-05-12T11:54:55.439Z,15.90
2023-05-12T11:57:41.019Z,14.82
2023-05-12T12:00:11.389Z,19.77
2023-05-12T12:02:44.780Z,15.02
2023-05-12T12:05:22.544Z,18.70
2023-05-12T12:07:52.539Z,16.80
2023-05-12T12:10:22.525Z,15.20
2023-05-12T12:12:52.814Z,19.05
2023-05-12T12:15:22.474Z,18.92
2023-05-12T12:17:52.304Z,18.30
2023-05-12T12:20:21.900Z,15.27
2023-05-12T12:22:51.471Z,18.60
2023-05-12T12:25:22.096Z,16.70
2023-05-12T12:27:51.840Z,19.73
2023-05-12T12:30:21.856Z,17.27
2023-05-12T12:32:51.564Z,17.02
2023-05-12T12:35:21.475Z,23.83
2023-05-12T12:37:54.010Z,16.05
2023-05-12T12:40:23.737Z,18.85
2023-05-12T12:42:53.341Z,17.20
2023-05-12T12:45:23.201Z,16.15
2023-05-12T12:47:56.317Z,23.83
2023-05-12T12:50:27.313Z,20.40
2023-05-12T12:52:57.135Z,19.80
2023-05-12T12:55:27.390Z,19.33
2023-05-12T12:57:56.978Z,20.55
2023-05-12T13:00:27.300Z,21.17
2023-05-12T13:02:57.153Z,14.70
2023-05-12T13:05:26.862Z,16.98
2023-05-12T13:07:57.093Z,17.20
2023-05-12T13:10:27.431Z,16.52
2023-05-12T13:12:56.996Z,20.58
2023-05-12T13:15:26.670Z,16.60
2023-05-12T13:17:56.283Z,20.63
2023-05-12T13:20:26.025Z,18.50
2023-05-12T13:22:55.592Z,15.57
2023-05-12T13:25:25.253Z,20.08
2023-05-12T13:27:54.857Z,19.08
2023-05-12T13:30:26.525Z,19.35
2023-05-12T13:32:56.181Z,20.42
2023-05-12T13:35:25.867Z,23.30
2023-05-12T13:37:56.090Z,26.58
2023-05-12T13:40:25.712Z,20.02
2023-05-12T13:42:55.963Z,26.15
2023-05-12T13:45:25.788Z,26.55
2023-05-12T13:47:55.686Z,24.25
2023-05-12T13:50:25.332Z,25.73
2023-05-12T13:52:55.105Z,22.50
2023-05-12T13:55:24.976Z,27.65
2023-05-12T13:57:54.750Z,26.80
2023-05-12T14:00:24.845Z,34.75
2023-05-12T14:02:54.761Z,32.53
2023-05-12T14:05:24.908Z,37.25
2023-05-12T14:07:54.588Z,45.83
2023-05-12T14:10:24.201Z,38.75
2023-05-12T14:12:53.825Z,34.72
2023-05-12T14:15:36.134Z,33.30
2023-05-12T14:18:10.181Z,37.70
2023-05-12T14:20:40.065Z,37.08
2023-05-12T14:23:09.644Z,32.65
2023-05-12T14:25:39.377Z,36.03
2023-05-12T14:28:09.196Z,34.08
2023-05-12T14:30:39.150Z,45.53
2023-05-12T14:33:08.933Z,38.88
2023-05-12T14:35:38.533Z,41.92
2023-05-12T14:38:08.215Z,49.70
2023-05-12T14:40:40.175Z,49.92
2023-05-12T14:43:09.973Z,49.28
2023-05-12T14:45:39.813Z,47.20
2023-05-12T14:48:09.480Z,40.72
2023-05-12T14:50:39.608Z,46.63
2023-05-12T14:53:09.240Z,42.92
2023-05-12T14:55:38.816Z,49.65
2023-05-12T14:58:08.451Z,40.42
2023-05-12T15:00:38.053Z,46.00
2023-05-12T15:03:09.043Z,43.30
2023-05-12T15:05:56.881Z,43.55
2023-05-12T15:08:28.388Z,45.78
2023-05-12T15:10:57.993Z,46.95
2023-05-12T15:13:27.810Z,53.25
2023-05-12T15:15:57.456Z,42.80
2023-05-12T15:18:27.140Z,41.40
2023-05-12T15:20:56.773Z,39.92
2023-05-12T15:23:26.502Z,53.50
2023-05-12T15:25:56.129Z,48.10
2023-05-12T15:28:25.707Z,48.75
2023-05-12T15:30:58.988Z,43.92
2023-05-12T15:33:29.836Z,46.03
2023-05-12T15:36:00.115Z,47.45
2023-05-12T15:38:29.821Z,50.08
2023-05-12T15:41:00.542Z,42.47
2023-05-12T15:43:30.329Z,44.88
2023-05-12T15:46:00.029Z,47.78
2023-05-12T15:48:30.180Z,44.22
2023-05-12T15:50:59.724Z,48.22
2023-05-12T15:53:29.381Z,44.15
2023-05-12T15:56:03.276Z,42.72
2023-05-12T15:58:33.144Z,45.15
2023-05-12T16:01:02.952Z,44.40
2023-05-12T16:03:33.107Z,44.42
2023-05-12T16:06:02.746Z,40.15
2023-05-12T16:08:32.525Z,45.17
2023-05-12T16:11:02.384Z,45.40
2023-05-12T16:13:32.107Z,41.15
2023-05-12T16:16:01.780Z,47.28
2023-05-12T16:18:34.328Z,50.33
2023-05-12T16:21:04.413Z,48.20
2023-05-12T16:23:34.066Z,51.20
2023-05-12T16:26:03.654Z,55.40
2023-05-12T16:28:36.186Z,57.80
2023-05-12T16:31:06.187Z,51.03
2023-05-12T16:33:35.737Z,55.08
2023-05-12T16:36:05.354Z,54.85
2023-05-12T16:38:36.255Z,58.50
2023-05-12T16:41:06.210Z,58.53
2023-05-12T16:43:35.995Z,53.38
2023-05-12T16:46:06.182Z,51.67
2023-05-12T16:48:36.195Z,62.95
2023-05-12T16:51:12.902Z,57.75
2023-05-12T16:53:42.701Z,55.67
2023-05-12T16:56:13.089Z,61.22
2023-05-12T16:58:42.673Z,57.33
2023-05-12T17:01:12.340Z,57.65
2023-05-12T17:03:42.030Z,57.83
2023-05-12T17:06:11.674Z,56.92
2023-05-12T17:08:41.324Z,54.80
2023-05-12T17:11:11.207Z,56.95
2023-05-12T17:13:40.874Z,56.67
2023-05-12T17:16:10.536Z,48.72
2023-05-12T17:21:13.092Z,58.88
2023-05-12T17:23:42.881Z,49.97
2023-05-12T17:26:12.488Z,51.50
2023-05-12T17:28:42.111Z,52.25
2023-05-12T17:31:12.508Z,53.83
2023-05-12T17:33:42.192Z,52.22
2023-05-12T17:36:13.496Z,55.75
2023-05-12T17:38:43.711Z,52.55
2023-05-12T17:41:13.658Z,50.60
2023-05-12T17:43:43.420Z,62.92
2023-05-12T17:46:13.054Z,55.35
2023-05-12T17:48:43.058Z,55.25
2023-05-12T17:51:12.737Z,53.63
2023-05-12T17:53:42.393Z,51.97
2023-05-12T17:56:12.014Z,61.40
2023-05-12T17:58:41.576Z,53.92
2023-05-12T18:01:11.268Z,51.30
2023-05-12T18:03:40.902Z,55.38
2023-05-12T18:06:14.181Z,56.45
2023-05-12T18:08:43.768Z,55.03
2023-05-12T18:11:13.328Z,53.30
2023-05-12T18:13:43.331Z,53.53
2023-05-12T18:16:21.696Z,50.45
2023-05-12T18:18:57.848Z,46.42
2023-05-12T18:21:27.892Z,66.35
2023-05-12T18:23:57.755Z,51.60
2023-05-12T18:26:28.377Z,53.50
2023-05-12T18:28:58.218Z,56.22
2023-05-12T18:31:28.408Z,64.93
2023-05-12T18:33:58.002Z,60.28
2023-05-12T18:36:27.602Z,55.67
2023-05-12T18:38:57.138Z,50.22
2023-05-12T18:41:26.780Z,61.95
2023-05-12T18:43:56.430Z,56.28
2023-05-12T18:46:26.050Z,51.08
2023-05-12T18:48:55.671Z,62.28
2023-05-12T18:51:25.313Z,55.78
2023-05-12T18:53:54.888Z,61.00
2023-05-12T18:56:24.471Z,56.80
2023-05-12T18:58:54.082Z,58.13
2023-05-12T19:01:24.422Z,58.20
2023-05-12T19:03:54.404Z,47.72
2023-05-12T19:06:24.048Z,49.47
2023-05-12T19:08:53.603Z,49.33
2023-05-12T19:11:23.379Z,47.17
2023-05-12T19:13:53.896Z,48.08
2023-05-12T19:16:25.224Z,41.65
2023-05-12T19:18:55.041Z,45.60
2023-05-12T19:21:24.692Z,46.15
2023-05-12T19:23:54.241Z,51.60
2023-05-12T19:26:23.817Z,39.47
2023-05-12T19:28:53.725Z,45.75
2023-05-12T19:31:23.538Z,40.03
2023-05-12T19:33:54.520Z,41.72
2023-05-12T19:36:24.160Z,40.13
2023-05-12T19:38:53.785Z,48.65
2023-05-12T19:41:23.452Z,47.75
2023-05-12T19:43:53.011Z,44.67
2023-05-12T19:46:22.927Z,49.38
2023-05-12T19:48:54.180Z,43.08
2023-05-12T19:51:23.777Z,39.95
2023-05-12T19:53:53.379Z,36.25
2023-05-12T19:56:22.987Z,38.63
2023-05-12T19:58:53.802Z,42.28
2023-05-12T20:01:23.604Z,39.40
2023-05-12T20:03:54.583Z,38.15
2023-05-12T20:06:25.640Z,34.28
2023-05-12T20:08:55.216Z,42.80
2023-05-12T20:11:24.820Z,39.22
2023-05-12T20:13:54.446Z,38.28
2023-05-12T20:16:24.098Z,39.13
2023-05-12T20:18:53.970Z,43.03
2023-05-12T20:21:23.628Z,36.67
2023-05-12T20:23:53.315Z,43.28
2023-05-12T20:26:22.910Z,41.92
2023-05-12T20:28:55.467Z,39.33
2023-05-12T20:31:25.137Z,40.67
2023-05-12T20:33:56.586Z,40.20
2023-05-12T20:36:26.284Z,38.58
2023-05-12T20:38:55.911Z,45.28
2023-05-12T20:41:25.516Z,41.80
2023-05-12T20:43:55.225Z,41.17
2023-05-12T20:46:25.009Z,45.47
2023-05-12T20:48:54.858Z,39.72
2023-05-12T20:51:24.476Z,44.20
2023-05-12T20:53:54.750Z,49.60
2023-05-12T20:56:24.420Z,39.22
2023-05-12T20:58:54.107Z,38.80
2023-05-12T21:01:24.031Z,41.88
2023-05-12T21:03:53.743Z,44.85
2023-05-12T21:06:23.421Z,46.22
2023-05-12T21:08:53.153Z,56.22
2023-05-12T21:11:23.838Z,48.17
2023-05-12T21:13:53.405Z,47.20
2023-05-12T21:16:23.100Z,44.63
2023-05-12T21:18:52.776Z,50.17
2023-05-12T21:21:22.399Z,42.72
2023-05-12T21:23:52.156Z,46.90
2023-05-12T21:26:22.850Z,39.88
2023-05-12T21:28:52.446Z,42.78
2023-05-12T21:31:22.049Z,45.97
2023-05-12T21:33:51.937Z,42.60
2023-05-12T21:36:21.592Z,39.47
2023-05-12T21:38:51.147Z,46.40
2023-05-12T21:41:20.722Z,38.65
2023-05-12T21:43:50.322Z,38.80
2023-05-12T21:46:19.998Z,39.33
2023-05-12T21:48:49.824Z,38.33
2023-05-12T21:51:19.501Z,38.38
2023-05-12T21:53:49.155Z,41.08
2023-05-12T21:56:18.820Z,34.45
2023-05-12T21:58:48.726Z,43.17
2023-05-12T22:01:21.291Z,42.53
2023-05-12T22:03:51.466Z,48.97
2023-05-12T22:06:21.181Z,39.28
2023-05-12T22:08:50.758Z,36.85
2023-05-12T22:11:20.872Z,42.33
2023-05-12T22:13:50.717Z,46.50
2023-05-12T22:16:25.753Z,41.08
2023-05-12T22:18:58.647Z,46.45
2023-05-12T22:21:28.635Z,45.28
2023-05-12T22:23:58.984Z,52.17
2023-05-12T22:26:28.585Z,47.33
2023-05-12T22:28:58.252Z,44.50
2023-05-12T22:31:27.918Z,47.95
2023-05-12T22:33:57.499Z,49.20
2023-05-12T22:36:27.241Z,42.47
2023-05-12T22:38:56.826Z,46.22
2023-05-12T22:41:26.502Z,56.70
2023-05-12T22:43:56.297Z,62.53
2023-05-12T22:46:25.915Z,58.75
2023-05-12T22:48:55.554Z,53.13
2023-05-12T22:51:25.134Z,64.15
2023-05-12T22:53:54.712Z,63.95
2023-05-12T22:56:24.274Z,67.72
2023-05-12T22:58:53.862Z,65.22
2023-05-12T23:01:23.653Z,60.13
2023-05-12T23:03:53.535Z,60.92
2023-05-12T23:06:23.137Z,55.28
2023-05-12T23:08:52.836Z,59.67
2023-05-12T23:11:23.014Z,55.05
2023-05-12T23:13:52.721Z,61.40
2023-05-12T23:16:22.999Z,62.40
2023-05-12T23:18:52.772Z,56.05
2023-05-12T23:21:22.386Z,60.50
2023-05-12T23:23:52.134Z,59.75
2023-05-12T23:26:22.278Z,58.88
2023-05-12T23:28:52.131Z,51.10
2023-05-12T23:31:21.990Z,54.42
2023-05-12T23:33:51.660Z,51.03
2023-05-12T23:36:21.271Z,50.45
2023-05-12T23:38:55.875Z,51.55
2023-05-12T23:41:25.819Z,50.30
2023-05-12T23:43:55.384Z,39.28
2023-05-12T23:46:24.935Z,36.33
2023-05-12T23:48:54.520Z,35.05
2023-05-12T23:51:24.773Z,46.33
2023-05-12T23:53:54.399Z,40.55
2023-05-12T23:56:24.385Z,37.65
2023-05-12T23:58:54.077Z,44.67
